sensor_id;sensor_type;location;lat;lon;timestamp;P1;durP1;ratioP1;P2;durP2;ratioP2
10987;SDS011;5547;42.672;23.230;2023-07-20T00:01:19;6.30;;;3.13;;
10987;SDS011;5547;42.672;23.230;2023-07-20T00:04:19;7.13;;;3.50;;
10987;SDS011;5547;42.672;23.230;2023-07-20T00:07:20;8.03;;;3.30;;
10987;SDS011;5547;42.672;23.230;2023-07-20T00:10:20;5.73;;;3.13;;
10987;SDS011;5547;42.672;23.230;2023-07-20T00:13:20;8.60;;;3.50;;
10987;SDS011;5547;42.672;23.230;2023-07-20T00:16:21;5.20;;;3.00;;
10987;SDS011;5547;42.672;23.230;2023-07-20T00:19:22;6.80;;;2.97;;
10987;SDS011;5547;42.672;23.230;2023-07-20T00:22:24;5.82;;;2.92;;
10987;SDS011;5547;42.672;23.230;2023-07-20T00:25:24;5.97;;;3.00;;
10987;SDS011;5547;42.672;23.230;2023-07-20T00:28:25;7.60;;;3.50;;
10987;SDS011;5547;42.672;23.230;2023-07-20T00:31:25;6.47;;;3.43;;
10987;SDS011;5547;42.672;23.230;2023-07-20T00:34:27;8.45;;;3.50;;
10987;SDS011;5547;42.672;23.230;2023-07-20T00:37:27;7.55;;;3.70;;
10987;SDS011;5547;42.672;23.230;2023-07-20T00:40:34;8.75;;;3.30;;
10987;SDS011;5547;42.672;23.230;2023-07-20T00:43:35;6.45;;;3.17;;
10987;SDS011;5547;42.672;23.230;2023-07-20T00:46:36;9.30;;;3.27;;
10987;SDS011;5547;42.672;23.230;2023-07-20T00:49:37;7.43;;;3.20;;
10987;SDS011;5547;42.672;23.230;2023-07-20T00:52:38;8.68;;;3.00;;
10987;SDS011;5547;42.672;23.230;2023-07-20T00:55:41;8.60;;;3.30;;
10987;SDS011;5547;42.672;23.230;2023-07-20T00:58:42;7.05;;;3.40;;
10987;SDS011;5547;42.672;23.230;2023-07-20T01:01:42;6.57;;;3.80;;
10987;SDS011;5547;42.672;23.230;2023-07-20T01:04:43;6.90;;;3.53;;
10987;SDS011;5547;42.672;23.230;2023-07-20T01:07:53;5.57;;;3.40;;
10987;SDS011;5547;42.672;23.230;2023-07-20T01:11:04;7.70;;;3.30;;
10987;SDS011;5547;42.672;23.230;2023-07-20T01:14:10;6.75;;;3.58;;
10987;SDS011;5547;42.672;23.230;2023-07-20T01:17:12;6.97;;;3.30;;
10987;SDS011;5547;42.672;23.230;2023-07-20T01:20:13;8.43;;;3.80;;
10987;SDS011;5547;42.672;23.230;2023-07-20T01:23:31;9.37;;;3.63;;
10987;SDS011;5547;42.672;23.230;2023-07-20T01:26:55;8.75;;;3.58;;
10987;SDS011;5547;42.672;23.230;2023-07-20T01:33:55;6.68;;;3.30;;
10987;SDS011;5547;42.672;23.230;2023-07-20T01:36:58;8.50;;;4.18;;
10987;SDS011;5547;42.672;23.230;2023-07-20T01:40:00;5.70;;;3.97;;
10987;SDS011;5547;42.672;23.230;2023-07-20T01:43:02;7.03;;;3.42;;
10987;SDS011;5547;42.672;23.230;2023-07-20T01:46:03;8.40;;;4.10;;
10987;SDS011;5547;42.672;23.230;2023-07-20T01:49:03;7.37;;;4.57;;
10987;SDS011;5547;42.672;23.230;2023-07-20T01:52:04;8.67;;;4.10;;
10987;SDS011;5547;42.672;23.230;2023-07-20T01:55:04;9.82;;;3.75;;
10987;SDS011;5547;42.672;23.230;2023-07-20T01:58:05;8.27;;;4.03;;
10987;SDS011;5547;42.672;23.230;2023-07-20T02:01:06;6.30;;;3.50;;
10987;SDS011;5547;42.672;23.230;2023-07-20T02:04:07;7.75;;;3.70;;
10987;SDS011;5547;42.672;23.230;2023-07-20T02:07:07;7.40;;;4.10;;
10987;SDS011;5547;42.672;23.230;2023-07-20T02:10:07;9.40;;;4.40;;
10987;SDS011;5547;42.672;23.230;2023-07-20T02:13:08;9.00;;;4.77;;
10987;SDS011;5547;42.672;23.230;2023-07-20T02:16:08;9.07;;;4.13;;
10987;SDS011;5547;42.672;23.230;2023-07-20T02:19:09;7.73;;;4.50;;
10987;SDS011;5547;42.672;23.230;2023-07-20T02:22:09;9.13;;;4.28;;
10987;SDS011;5547;42.672;23.230;2023-07-20T02:25:10;8.63;;;4.17;;
10987;SDS011;5547;42.672;23.230;2023-07-20T02:28:12;8.30;;;5.30;;
10987;SDS011;5547;42.672;23.230;2023-07-20T02:31:14;8.53;;;4.63;;
10987;SDS011;5547;42.672;23.230;2023-07-20T02:34:14;8.93;;;4.60;;
10987;SDS011;5547;42.672;23.230;2023-07-20T02:37:15;7.17;;;4.17;;
10987;SDS011;5547;42.672;23.230;2023-07-20T02:40:16;8.77;;;4.63;;
10987;SDS011;5547;42.672;23.230;2023-07-20T02:43:17;8.00;;;4.80;;
10987;SDS011;5547;42.672;23.230;2023-07-20T02:46:17;10.00;;;5.00;;
10987;SDS011;5547;42.672;23.230;2023-07-20T02:49:17;10.00;;;5.70;;
10987;SDS011;5547;42.672;23.230;2023-07-20T02:52:18;8.60;;;4.80;;
10987;SDS011;5547;42.672;23.230;2023-07-20T02:55:18;9.20;;;4.83;;
10987;SDS011;5547;42.672;23.230;2023-07-20T02:58:19;10.73;;;5.20;;
10987;SDS011;5547;42.672;23.230;2023-07-20T03:01:19;8.80;;;4.90;;
10987;SDS011;5547;42.672;23.230;2023-07-20T03:04:20;6.97;;;4.30;;
10987;SDS011;5547;42.672;23.230;2023-07-20T03:07:20;9.80;;;5.10;;
10987;SDS011;5547;42.672;23.230;2023-07-20T03:10:20;7.73;;;4.77;;
10987;SDS011;5547;42.672;23.230;2023-07-20T03:13:21;10.83;;;5.57;;
10987;SDS011;5547;42.672;23.230;2023-07-20T03:16:23;8.40;;;4.90;;
10987;SDS011;5547;42.672;23.230;2023-07-20T03:19:25;9.00;;;4.97;;
10987;SDS011;5547;42.672;23.230;2023-07-20T03:22:25;7.47;;;4.80;;
10987;SDS011;5547;42.672;23.230;2023-07-20T03:25:26;9.95;;;5.03;;
10987;SDS011;5547;42.672;23.230;2023-07-20T03:28:26;10.50;;;5.50;;
10987;SDS011;5547;42.672;23.230;2023-07-20T03:31:26;8.83;;;5.03;;
10987;SDS011;5547;42.672;23.230;2023-07-20T03:34:27;9.27;;;5.07;;
10987;SDS011;5547;42.672;23.230;2023-07-20T03:37:27;9.20;;;5.00;;
10987;SDS011;5547;42.672;23.230;2023-07-20T03:40:28;8.53;;;5.10;;
10987;SDS011;5547;42.672;23.230;2023-07-20T03:43:28;8.63;;;5.32;;
10987;SDS011;5547;42.672;23.230;2023-07-20T03:46:28;8.07;;;4.90;;
10987;SDS011;5547;42.672;23.230;2023-07-20T03:49:29;7.73;;;4.80;;
10987;SDS011;5547;42.672;23.230;2023-07-20T03:52:30;10.07;;;4.50;;
10987;SDS011;5547;42.672;23.230;2023-07-20T03:55:30;9.23;;;5.28;;
10987;SDS011;5547;42.672;23.230;2023-07-20T03:58:30;8.40;;;4.78;;
10987;SDS011;5547;42.672;23.230;2023-07-20T04:01:31;10.50;;;5.07;;
10987;SDS011;5547;42.672;23.230;2023-07-20T04:04:36;6.88;;;4.07;;
10987;SDS011;5547;42.672;23.230;2023-07-20T04:07:37;10.20;;;4.30;;
10987;SDS011;5547;42.672;23.230;2023-07-20T04:10:37;6.93;;;4.20;;
10987;SDS011;5547;42.672;23.230;2023-07-20T04:13:38;9.07;;;4.40;;
10987;SDS011;5547;42.672;23.230;2023-07-20T04:16:39;6.37;;;3.60;;
10987;SDS011;5547;42.672;23.230;2023-07-20T04:19:39;7.43;;;3.50;;
10987;SDS011;5547;42.672;23.230;2023-07-20T04:22:39;9.00;;;3.40;;
10987;SDS011;5547;42.672;23.230;2023-07-20T04:25:40;7.90;;;3.67;;
10987;SDS011;5547;42.672;23.230;2023-07-20T04:28:41;8.30;;;3.50;;
10987;SDS011;5547;42.672;23.230;2023-07-20T04:31:44;9.53;;;3.30;;
10987;SDS011;5547;42.672;23.230;2023-07-20T04:34:45;9.10;;;3.80;;
10987;SDS011;5547;42.672;23.230;2023-07-20T04:37:45;7.60;;;3.40;;
10987;SDS011;5547;42.672;23.230;2023-07-20T04:40:47;9.47;;;3.70;;
10987;SDS011;5547;42.672;23.230;2023-07-20T04:43:48;10.35;;;3.97;;
10987;SDS011;5547;42.672;23.230;2023-07-20T04:46:49;8.55;;;3.55;;
10987;SDS011;5547;42.672;23.230;2023-07-20T04:49:50;10.90;;;4.07;;
10987;SDS011;5547;42.672;23.230;2023-07-20T04:52:50;10.50;;;4.20;;
10987;SDS011;5547;42.672;23.230;2023-07-20T04:55:50;9.70;;;4.73;;
10987;SDS011;5547;42.672;23.230;2023-07-20T04:58:51;8.20;;;4.10;;
10987;SDS011;5547;42.672;23.230;2023-07-20T05:01:52;9.80;;;3.97;;
10987;SDS011;5547;42.672;23.230;2023-07-20T05:04:52;9.50;;;4.20;;
10987;SDS011;5547;42.672;23.230;2023-07-20T05:07:53;9.10;;;4.20;;
10987;SDS011;5547;42.672;23.230;2023-07-20T05:10:54;8.68;;;4.40;;
10987;SDS011;5547;42.672;23.230;2023-07-20T05:13:54;10.10;;;4.20;;
10987;SDS011;5547;42.672;23.230;2023-07-20T05:16:54;9.80;;;4.00;;
10987;SDS011;5547;42.672;23.230;2023-07-20T05:19:55;8.37;;;3.47;;
10987;SDS011;5547;42.672;23.230;2023-07-20T05:22:55;10.63;;;4.60;;
10987;SDS011;5547;42.672;23.230;2023-07-20T05:25:56;9.57;;;4.47;;
10987;SDS011;5547;42.672;23.230;2023-07-20T05:28:57;9.20;;;3.92;;
10987;SDS011;5547;42.672;23.230;2023-07-20T05:31:58;11.07;;;4.00;;
10987;SDS011;5547;42.672;23.230;2023-07-20T05:34:58;10.77;;;3.70;;
10987;SDS011;5547;42.672;23.230;2023-07-20T05:37:59;9.07;;;4.00;;
10987;SDS011;5547;42.672;23.230;2023-07-20T05:40:59;11.03;;;3.63;;
10987;SDS011;5547;42.672;23.230;2023-07-20T05:44:03;8.35;;;3.47;;
10987;SDS011;5547;42.672;23.230;2023-07-20T05:47:04;9.43;;;3.70;;
10987;SDS011;5547;42.672;23.230;2023-07-20T05:50:04;8.40;;;3.90;;
10987;SDS011;5547;42.672;23.230;2023-07-20T05:53:06;7.65;;;3.50;;
10987;SDS011;5547;42.672;23.230;2023-07-20T05:56:07;8.98;;;3.85;;
10987;SDS011;5547;42.672;23.230;2023-07-20T05:59:10;8.80;;;3.53;;
10987;SDS011;5547;42.672;23.230;2023-07-20T06:02:10;9.73;;;3.93;;
10987;SDS011;5547;42.672;23.230;2023-07-20T06:05:12;9.13;;;3.20;;
10987;SDS011;5547;42.672;23.230;2023-07-20T06:08:12;8.73;;;3.50;;
10987;SDS011;5547;42.672;23.230;2023-07-20T06:11:12;11.30;;;3.60;;
10987;SDS011;5547;42.672;23.230;2023-07-20T06:14:13;8.83;;;3.60;;
10987;SDS011;5547;42.672;23.230;2023-07-20T06:17:13;9.80;;;3.67;;
10987;SDS011;5547;42.672;23.230;2023-07-20T06:20:14;7.77;;;3.63;;
10987;SDS011;5547;42.672;23.230;2023-07-20T06:23:14;8.13;;;4.00;;
10987;SDS011;5547;42.672;23.230;2023-07-20T06:26:14;8.67;;;3.70;;
10987;SDS011;5547;42.672;23.230;2023-07-20T06:29:15;6.40;;;3.38;;
10987;SDS011;5547;42.672;23.230;2023-07-20T06:32:16;7.67;;;3.10;;
10987;SDS011;5547;42.672;23.230;2023-07-20T06:35:16;6.63;;;3.13;;
10987;SDS011;5547;42.672;23.230;2023-07-20T06:38:17;8.25;;;3.72;;
10987;SDS011;5547;42.672;23.230;2023-07-20T06:41:18;9.53;;;3.67;;
10987;SDS011;5547;42.672;23.230;2023-07-20T06:44:19;7.38;;;3.55;;
10987;SDS011;5547;42.672;23.230;2023-07-20T06:47:19;7.80;;;3.60;;
10987;SDS011;5547;42.672;23.230;2023-07-20T06:50:19;8.30;;;3.57;;
10987;SDS011;5547;42.672;23.230;2023-07-20T06:53:20;9.93;;;3.60;;
10987;SDS011;5547;42.672;23.230;2023-07-20T06:56:20;7.23;;;3.43;;
10987;SDS011;5547;42.672;23.230;2023-07-20T06:59:20;12.43;;;3.73;;
10987;SDS011;5547;42.672;23.230;2023-07-20T07:02:21;7.83;;;3.37;;
10987;SDS011;5547;42.672;23.230;2023-07-20T07:05:21;10.20;;;4.00;;
10987;SDS011;5547;42.672;23.230;2023-07-20T07:08:22;8.03;;;3.90;;
10987;SDS011;5547;42.672;23.230;2023-07-20T07:11:22;9.43;;;3.80;;
10987;SDS011;5547;42.672;23.230;2023-07-20T07:14:23;9.67;;;3.67;;
10987;SDS011;5547;42.672;23.230;2023-07-20T07:17:23;9.23;;;3.73;;
10987;SDS011;5547;42.672;23.230;2023-07-20T07:20:24;8.85;;;3.83;;
10987;SDS011;5547;42.672;23.230;2023-07-20T07:23:24;8.17;;;4.40;;
10987;SDS011;5547;42.672;23.230;2023-07-20T07:26:25;14.47;;;4.57;;
10987;SDS011;5547;42.672;23.230;2023-07-20T07:29:26;8.15;;;3.80;;
10987;SDS011;5547;42.672;23.230;2023-07-20T07:32:26;10.50;;;3.83;;
10987;SDS011;5547;42.672;23.230;2023-07-20T07:35:27;7.60;;;4.10;;
10987;SDS011;5547;42.672;23.230;2023-07-20T07:38:27;8.30;;;4.23;;
10987;SDS011;5547;42.672;23.230;2023-07-20T07:41:28;8.27;;;3.50;;
10987;SDS011;5547;42.672;23.230;2023-07-20T07:44:28;9.43;;;4.10;;
10987;SDS011;5547;42.672;23.230;2023-07-20T07:47:29;7.27;;;4.10;;
10987;SDS011;5547;42.672;23.230;2023-07-20T07:50:29;8.50;;;3.80;;
10987;SDS011;5547;42.672;23.230;2023-07-20T07:53:30;8.25;;;4.22;;
10987;SDS011;5547;42.672;23.230;2023-07-20T07:56:30;7.57;;;3.70;;
10987;SDS011;5547;42.672;23.230;2023-07-20T07:59:31;8.57;;;4.37;;
10987;SDS011;5547;42.672;23.230;2023-07-20T08:02:36;9.57;;;3.75;;
10987;SDS011;5547;42.672;23.230;2023-07-20T08:05:36;8.47;;;3.80;;
10987;SDS011;5547;42.672;23.230;2023-07-20T08:08:37;9.07;;;3.77;;
10987;SDS011;5547;42.672;23.230;2023-07-20T08:11:38;7.70;;;3.67;;
10987;SDS011;5547;42.672;23.230;2023-07-20T08:14:39;5.75;;;2.80;;
10987;SDS011;5547;42.672;23.230;2023-07-20T08:17:41;5.20;;;3.00;;
10987;SDS011;5547;42.672;23.230;2023-07-20T08:20:45;6.30;;;2.80;;
10987;SDS011;5547;42.672;23.230;2023-07-20T08:23:46;6.28;;;2.60;;
10987;SDS011;5547;42.672;23.230;2023-07-20T08:26:47;6.68;;;2.65;;
10987;SDS011;5547;42.672;23.230;2023-07-20T08:29:47;5.70;;;2.10;;
10987;SDS011;5547;42.672;23.230;2023-07-20T08:32:48;4.97;;;2.63;;
10987;SDS011;5547;42.672;23.230;2023-07-20T08:35:48;5.03;;;2.20;;
10987;SDS011;5547;42.672;23.230;2023-07-20T08:38:49;5.67;;;2.63;;
10987;SDS011;5547;42.672;23.230;2023-07-20T08:41:49;6.77;;;2.67;;
10987;SDS011;5547;42.672;23.230;2023-07-20T08:44:50;5.70;;;2.47;;
10987;SDS011;5547;42.672;23.230;2023-07-20T08:47:53;5.05;;;2.30;;
10987;SDS011;5547;42.672;23.230;2023-07-20T08:50:55;4.28;;;2.00;;
10987;SDS011;5547;42.672;23.230;2023-07-20T08:53:58;6.68;;;2.30;;
10987;SDS011;5547;42.672;23.230;2023-07-20T08:57:02;5.43;;;2.30;;
10987;SDS011;5547;42.672;23.230;2023-07-20T09:00:03;6.15;;;2.50;;
10987;SDS011;5547;42.672;23.230;2023-07-20T09:03:05;6.57;;;2.30;;
10987;SDS011;5547;42.672;23.230;2023-07-20T09:06:05;6.30;;;2.17;;
10987;SDS011;5547;42.672;23.230;2023-07-20T09:09:06;6.03;;;2.33;;
10987;SDS011;5547;42.672;23.230;2023-07-20T09:12:12;6.95;;;2.20;;
10987;SDS011;5547;42.672;23.230;2023-07-20T09:15:14;7.78;;;2.72;;
10987;SDS011;5547;42.672;23.230;2023-07-20T09:18:27;7.73;;;2.30;;
10987;SDS011;5547;42.672;23.230;2023-07-20T09:21:29;7.50;;;2.72;;
10987;SDS011;5547;42.672;23.230;2023-07-20T09:24:30;5.20;;;2.13;;
10987;SDS011;5547;42.672;23.230;2023-07-20T09:27:35;5.80;;;2.03;;
10987;SDS011;5547;42.672;23.230;2023-07-20T09:30:39;3.97;;;2.20;;
10987;SDS011;5547;42.672;23.230;2023-07-20T09:33:40;6.40;;;2.20;;
10987;SDS011;5547;42.672;23.230;2023-07-20T09:36:41;7.57;;;2.30;;
10987;SDS011;5547;42.672;23.230;2023-07-20T09:39:44;7.20;;;2.13;;
10987;SDS011;5547;42.672;23.230;2023-07-20T09:42:45;6.60;;;2.20;;
10987;SDS011;5547;42.672;23.230;2023-07-20T09:45:47;6.78;;;1.92;;
10987;SDS011;5547;42.672;23.230;2023-07-20T09:48:53;5.33;;;2.30;;
10987;SDS011;5547;42.672;23.230;2023-07-20T09:51:54;5.07;;;1.95;;
10987;SDS011;5547;42.672;23.230;2023-07-20T09:54:57;5.43;;;1.90;;
10987;SDS011;5547;42.672;23.230;2023-07-20T09:57:59;6.28;;;1.90;;
10987;SDS011;5547;42.672;23.230;2023-07-20T10:01:00;5.60;;;1.77;;
10987;SDS011;5547;42.672;23.230;2023-07-20T10:04:03;5.88;;;2.40;;
10987;SDS011;5547;42.672;23.230;2023-07-20T10:07:05;4.03;;;1.70;;
10987;SDS011;5547;42.672;23.230;2023-07-20T10:10:11;4.67;;;1.83;;
10987;SDS011;5547;42.672;23.230;2023-07-20T10:13:17;5.00;;;2.15;;
10987;SDS011;5547;42.672;23.230;2023-07-20T10:16:26;5.00;;;1.85;;
10987;SDS011;5547;42.672;23.230;2023-07-20T10:19:33;4.32;;;1.75;;
10987;SDS011;5547;42.672;23.230;2023-07-20T10:22:39;5.65;;;1.95;;
10987;SDS011;5547;42.672;23.230;2023-07-20T10:25:40;5.47;;;2.20;;
10987;SDS011;5547;42.672;23.230;2023-07-20T10:28:42;5.20;;;2.20;;
10987;SDS011;5547;42.672;23.230;2023-07-20T10:31:46;6.05;;;1.90;;
10987;SDS011;5547;42.672;23.230;2023-07-20T10:34:52;6.77;;;2.13;;
10987;SDS011;5547;42.672;23.230;2023-07-20T10:38:01;6.03;;;2.10;;
10987;SDS011;5547;42.672;23.230;2023-07-20T10:41:02;4.20;;;2.00;;
10987;SDS011;5547;42.672;23.230;2023-07-20T10:44:06;4.97;;;2.00;;
10987;SDS011;5547;42.672;23.230;2023-07-20T10:47:11;5.47;;;2.22;;
10987;SDS011;5547;42.672;23.230;2023-07-20T10:50:12;6.88;;;2.22;;
10987;SDS011;5547;42.672;23.230;2023-07-20T10:53:16;5.90;;;2.25;;
10987;SDS011;5547;42.672;23.230;2023-07-20T10:56:21;6.28;;;2.25;;
10987;SDS011;5547;42.672;23.230;2023-07-20T11:02:23;5.57;;;2.13;;
10987;SDS011;5547;42.672;23.230;2023-07-20T11:08:38;7.45;;;2.90;;
10987;SDS011;5547;42.672;23.230;2023-07-20T11:11:49;6.57;;;3.03;;
10987;SDS011;5547;42.672;23.230;2023-07-20T11:14:56;7.83;;;3.17;;
10987;SDS011;5547;42.672;23.230;2023-07-20T11:18:18;5.50;;;3.10;;
10987;SDS011;5547;42.672;23.230;2023-07-20T11:21:19;6.57;;;3.35;;
10987;SDS011;5547;42.672;23.230;2023-07-20T11:24:19;7.53;;;3.90;;
10987;SDS011;5547;42.672;23.230;2023-07-20T11:27:20;6.67;;;3.30;;
10987;SDS011;5547;42.672;23.230;2023-07-20T11:30:22;6.68;;;3.63;;
10987;SDS011;5547;42.672;23.230;2023-07-20T11:33:23;8.83;;;3.90;;
10987;SDS011;5547;42.672;23.230;2023-07-20T11:36:23;6.43;;;4.50;;
10987;SDS011;5547;42.672;23.230;2023-07-20T11:39:23;7.13;;;4.07;;
10987;SDS011;5547;42.672;23.230;2023-07-20T11:42:25;8.35;;;4.00;;
10987;SDS011;5547;42.672;23.230;2023-07-20T11:45:25;7.20;;;4.27;;
10987;SDS011;5547;42.672;23.230;2023-07-20T11:48:27;8.57;;;3.88;;
10987;SDS011;5547;42.672;23.230;2023-07-20T11:51:28;6.57;;;4.27;;
10987;SDS011;5547;42.672;23.230;2023-07-20T11:54:29;5.05;;;3.08;;
10987;SDS011;5547;42.672;23.230;2023-07-20T11:57:30;6.43;;;3.20;;
10987;SDS011;5547;42.672;23.230;2023-07-20T12:00:31;6.40;;;3.03;;
10987;SDS011;5547;42.672;23.230;2023-07-20T12:03:35;7.00;;;3.28;;
10987;SDS011;5547;42.672;23.230;2023-07-20T12:06:35;6.20;;;2.60;;
10987;SDS011;5547;42.672;23.230;2023-07-20T12:09:35;6.75;;;3.15;;
10987;SDS011;5547;42.672;23.230;2023-07-20T12:12:43;6.65;;;2.75;;
10987;SDS011;5547;42.672;23.230;2023-07-20T12:15:44;6.88;;;2.80;;
10987;SDS011;5547;42.672;23.230;2023-07-20T12:18:45;8.05;;;2.92;;
10987;SDS011;5547;42.672;23.230;2023-07-20T12:21:45;7.05;;;2.65;;
10987;SDS011;5547;42.672;23.230;2023-07-20T12:24:46;7.30;;;2.60;;
10987;SDS011;5547;42.672;23.230;2023-07-20T12:27:47;8.87;;;2.83;;
10987;SDS011;5547;42.672;23.230;2023-07-20T12:30:48;6.22;;;2.42;;
10987;SDS011;5547;42.672;23.230;2023-07-20T12:33:56;8.45;;;2.85;;
10987;SDS011;5547;42.672;23.230;2023-07-20T12:36:58;6.40;;;2.22;;
10987;SDS011;5547;42.672;23.230;2023-07-20T12:39:59;7.10;;;2.55;;
10987;SDS011;5547;42.672;23.230;2023-07-20T12:42:59;6.37;;;2.27;;
10987;SDS011;5547;42.672;23.230;2023-07-20T12:45:59;6.90;;;2.67;;
10987;SDS011;5547;42.672;23.230;2023-07-20T12:49:00;7.37;;;2.93;;
10987;SDS011;5547;42.672;23.230;2023-07-20T12:52:00;6.13;;;2.63;;
10987;SDS011;5547;42.672;23.230;2023-07-20T12:55:01;6.47;;;2.90;;
10987;SDS011;5547;42.672;23.230;2023-07-20T12:58:01;5.88;;;2.70;;
10987;SDS011;5547;42.672;23.230;2023-07-20T13:01:02;6.63;;;2.97;;
10987;SDS011;5547;42.672;23.230;2023-07-20T13:04:02;5.85;;;2.75;;
10987;SDS011;5547;42.672;23.230;2023-07-20T13:07:03;4.78;;;2.58;;
10987;SDS011;5547;42.672;23.230;2023-07-20T13:10:04;4.80;;;2.23;;
10987;SDS011;5547;42.672;23.230;2023-07-20T13:13:05;5.70;;;2.58;;
10987;SDS011;5547;42.672;23.230;2023-07-20T13:16:06;4.88;;;2.50;;
10987;SDS011;5547;42.672;23.230;2023-07-20T13:19:06;7.32;;;2.65;;
10987;SDS011;5547;42.672;23.230;2023-07-20T13:22:07;6.85;;;2.55;;
10987;SDS011;5547;42.672;23.230;2023-07-20T13:25:07;5.03;;;2.40;;
10987;SDS011;5547;42.672;23.230;2023-07-20T13:28:08;6.20;;;2.80;;
10987;SDS011;5547;42.672;23.230;2023-07-20T13:31:08;6.20;;;2.63;;
10987;SDS011;5547;42.672;23.230;2023-07-20T13:34:10;7.00;;;2.50;;
10987;SDS011;5547;42.672;23.230;2023-07-20T13:37:11;7.93;;;2.40;;
10987;SDS011;5547;42.672;23.230;2023-07-20T13:40:12;6.40;;;2.70;;
10987;SDS011;5547;42.672;23.230;2023-07-20T13:43:13;6.85;;;2.35;;
10987;SDS011;5547;42.672;23.230;2023-07-20T13:46:13;6.10;;;2.25;;
10987;SDS011;5547;42.672;23.230;2023-07-20T13:49:14;5.55;;;2.00;;
10987;SDS011;5547;42.672;23.230;2023-07-20T13:52:14;5.60;;;2.00;;
10987;SDS011;5547;42.672;23.230;2023-07-20T13:55:15;7.78;;;2.20;;
10987;SDS011;5547;42.672;23.230;2023-07-20T13:58:15;5.00;;;2.00;;
10987;SDS011;5547;42.672;23.230;2023-07-20T14:01:16;5.70;;;2.20;;
10987;SDS011;5547;42.672;23.230;2023-07-20T14:04:17;6.35;;;2.25;;
10987;SDS011;5547;42.672;23.230;2023-07-20T14:07:18;3.70;;;1.90;;
10987;SDS011;5547;42.672;23.230;2023-07-20T14:10:19;4.55;;;2.00;;
10987;SDS011;5547;42.672;23.230;2023-07-20T14:13:19;6.00;;;2.00;;
10987;SDS011;5547;42.672;23.230;2023-07-20T14:16:20;7.30;;;2.47;;
10987;SDS011;5547;42.672;23.230;2023-07-20T14:19:21;5.60;;;2.08;;
10987;SDS011;5547;42.672;23.230;2023-07-20T14:22:22;5.90;;;2.10;;
10987;SDS011;5547;42.672;23.230;2023-07-20T14:25:23;7.38;;;2.30;;
10987;SDS011;5547;42.672;23.230;2023-07-20T14:28:24;6.97;;;2.23;;
10987;SDS011;5547;42.672;23.230;2023-07-20T14:31:25;6.10;;;2.28;;
10987;SDS011;5547;42.672;23.230;2023-07-20T14:34:26;6.93;;;2.13;;
10987;SDS011;5547;42.672;23.230;2023-07-20T14:37:26;6.17;;;2.20;;
10987;SDS011;5547;42.672;23.230;2023-07-20T14:40:26;5.83;;;2.13;;
10987;SDS011;5547;42.672;23.230;2023-07-20T14:43:27;4.53;;;1.80;;
10987;SDS011;5547;42.672;23.230;2023-07-20T14:46:27;5.60;;;2.03;;
10987;SDS011;5547;42.672;23.230;2023-07-20T14:49:28;5.67;;;2.00;;
10987;SDS011;5547;42.672;23.230;2023-07-20T14:52:28;5.67;;;2.10;;
10987;SDS011;5547;42.672;23.230;2023-07-20T14:55:29;5.63;;;2.20;;
10987;SDS011;5547;42.672;23.230;2023-07-20T14:58:29;5.83;;;2.40;;
10987;SDS011;5547;42.672;23.230;2023-07-20T15:01:30;5.67;;;2.00;;
10987;SDS011;5547;42.672;23.230;2023-07-20T15:04:30;6.03;;;2.30;;
10987;SDS011;5547;42.672;23.230;2023-07-20T15:07:30;5.87;;;2.17;;
10987;SDS011;5547;42.672;23.230;2023-07-20T15:10:31;4.80;;;1.90;;
10987;SDS011;5547;42.672;23.230;2023-07-20T15:13:32;4.22;;;1.80;;
10987;SDS011;5547;42.672;23.230;2023-07-20T15:16:33;5.63;;;2.10;;
10987;SDS011;5547;42.672;23.230;2023-07-20T15:19:35;4.35;;;2.28;;
10987;SDS011;5547;42.672;23.230;2023-07-20T15:22:36;5.43;;;2.10;;
10987;SDS011;5547;42.672;23.230;2023-07-20T15:25:36;6.53;;;2.20;;
10987;SDS011;5547;42.672;23.230;2023-07-20T15:28:37;5.37;;;2.03;;
10987;SDS011;5547;42.672;23.230;2023-07-20T15:31:38;6.60;;;2.10;;
10987;SDS011;5547;42.672;23.230;2023-07-20T15:34:38;4.43;;;2.07;;
10987;SDS011;5547;42.672;23.230;2023-07-20T15:37:39;5.57;;;2.10;;
10987;SDS011;5547;42.672;23.230;2023-07-20T15:40:42;6.27;;;2.37;;
10987;SDS011;5547;42.672;23.230;2023-07-20T15:43:43;5.55;;;2.38;;
10987;SDS011;5547;42.672;23.230;2023-07-20T15:46:45;5.22;;;2.60;;
10987;SDS011;5547;42.672;23.230;2023-07-20T15:49:47;6.22;;;2.38;;
10987;SDS011;5547;42.672;23.230;2023-07-20T15:52:47;5.25;;;1.90;;
10987;SDS011;5547;42.672;23.230;2023-07-20T15:55:52;5.40;;;2.10;;
10987;SDS011;5547;42.672;23.230;2023-07-20T15:58:54;3.75;;;1.95;;
10987;SDS011;5547;42.672;23.230;2023-07-20T16:01:55;3.43;;;2.07;;
10987;SDS011;5547;42.672;23.230;2023-07-20T16:04:55;5.37;;;2.20;;
10987;SDS011;5547;42.672;23.230;2023-07-20T16:07:56;4.67;;;1.87;;
10987;SDS011;5547;42.672;23.230;2023-07-20T16:10:56;5.50;;;2.37;;
10987;SDS011;5547;42.672;23.230;2023-07-20T16:13:57;4.93;;;2.00;;
10987;SDS011;5547;42.672;23.230;2023-07-20T16:16:58;4.78;;;1.90;;
10987;SDS011;5547;42.672;23.230;2023-07-20T16:19:58;5.15;;;2.30;;
10987;SDS011;5547;42.672;23.230;2023-07-20T16:23:00;5.38;;;2.10;;
10987;SDS011;5547;42.672;23.230;2023-07-20T16:26:00;5.47;;;2.00;;
10987;SDS011;5547;42.672;23.230;2023-07-20T16:29:00;5.30;;;2.03;;
10987;SDS011;5547;42.672;23.230;2023-07-20T16:32:01;4.57;;;1.90;;
10987;SDS011;5547;42.672;23.230;2023-07-20T16:35:02;5.55;;;2.30;;
10987;SDS011;5547;42.672;23.230;2023-07-20T16:38:03;5.77;;;2.03;;
10987;SDS011;5547;42.672;23.230;2023-07-20T16:41:05;4.93;;;1.60;;
10987;SDS011;5547;42.672;23.230;2023-07-20T16:44:09;4.15;;;2.10;;
10987;SDS011;5547;42.672;23.230;2023-07-20T16:47:10;5.50;;;2.00;;
10987;SDS011;5547;42.672;23.230;2023-07-20T16:50:10;3.50;;;1.90;;
10987;SDS011;5547;42.672;23.230;2023-07-20T16:53:11;7.27;;;2.20;;
10987;SDS011;5547;42.672;23.230;2023-07-20T16:56:11;4.53;;;1.97;;
10987;SDS011;5547;42.672;23.230;2023-07-20T16:59:12;6.83;;;2.17;;
10987;SDS011;5547;42.672;23.230;2023-07-20T17:02:12;5.70;;;2.10;;
10987;SDS011;5547;42.672;23.230;2023-07-20T17:05:13;4.27;;;2.40;;
10987;SDS011;5547;42.672;23.230;2023-07-20T17:08:14;4.57;;;1.92;;
10987;SDS011;5547;42.672;23.230;2023-07-20T17:11:14;4.87;;;2.00;;
10987;SDS011;5547;42.672;23.230;2023-07-20T17:14:14;4.63;;;1.93;;
10987;SDS011;5547;42.672;23.230;2023-07-20T17:17:15;5.83;;;2.10;;
10987;SDS011;5547;42.672;23.230;2023-07-20T17:20:15;3.63;;;1.70;;
10987;SDS011;5547;42.672;23.230;2023-07-20T17:23:16;3.93;;;2.03;;
10987;SDS011;5547;42.672;23.230;2023-07-20T17:26:17;9.80;;;2.20;;
10987;SDS011;5547;42.672;23.230;2023-07-20T17:29:17;5.93;;;2.33;;
10987;SDS011;5547;42.672;23.230;2023-07-20T17:32:18;5.73;;;2.10;;
10987;SDS011;5547;42.672;23.230;2023-07-20T17:35:18;4.80;;;2.10;;
10987;SDS011;5547;42.672;23.230;2023-07-20T17:38:20;4.47;;;2.20;;
10987;SDS011;5547;42.672;23.230;2023-07-20T17:41:24;3.90;;;2.20;;
10987;SDS011;5547;42.672;23.230;2023-07-20T17:44:24;5.70;;;2.80;;
10987;SDS011;5547;42.672;23.230;2023-07-20T17:47:25;5.28;;;2.33;;
10987;SDS011;5547;42.672;23.230;2023-07-20T17:50:25;5.25;;;2.40;;
10987;SDS011;5547;42.672;23.230;2023-07-20T17:53:27;5.50;;;2.45;;
10987;SDS011;5547;42.672;23.230;2023-07-20T17:56:28;6.22;;;2.28;;
10987;SDS011;5547;42.672;23.230;2023-07-20T17:59:28;6.83;;;1.97;;
10987;SDS011;5547;42.672;23.230;2023-07-20T18:02:29;4.47;;;1.93;;
10987;SDS011;5547;42.672;23.230;2023-07-20T18:05:29;5.53;;;2.30;;
10987;SDS011;5547;42.672;23.230;2023-07-20T18:08:30;5.70;;;2.10;;
10987;SDS011;5547;42.672;23.230;2023-07-20T18:11:31;5.67;;;2.23;;
10987;SDS011;5547;42.672;23.230;2023-07-20T18:14:31;6.70;;;2.30;;
10987;SDS011;5547;42.672;23.230;2023-07-20T18:17:32;8.23;;;3.10;;
10987;SDS011;5547;42.672;23.230;2023-07-20T18:20:33;6.63;;;2.60;;
10987;SDS011;5547;42.672;23.230;2023-07-20T18:23:35;5.75;;;2.22;;